Time;durP1;ratioP1;P1;durP2;ratioP2;P2;SDS_P1;SDS_P2;PMS_P1;PMS_P2;Temp;Humidity;BMP_temperature;BMP_pressure;BME280_temperature;BME280_humidity;BME280_pressure;Samples;Min_cycle;Max_cycle;Signal;HPM_P1;HPM_P2
2021/06/27 00:01:24;;;;;;;8.10;3.90;;;;;;;22.12;61.25;98516.25;5017294;28;20044;-64
2021/06/27 00:03:50;;;;;;;8.30;4.55;;;;;;;22.11;61.08;98509.38;5032208;28;20061;-63
2021/06/27 00:06:16;;;;;;;6.90;4.57;;;;;;;21.92;60.61;98476.78;5026853;28;20060;-64
2021/06/27 00:08:42;;;;;;;7.10;3.75;;;;;;;22.01;60.48;98501.97;4996240;28;20443;-65
2021/06/27 00:11:09;;;;;;;5.68;3.97;;;;;;;21.98;60.64;98507.69;5016448;28;20037;-64
2021/06/27 00:13:37;;;;;;;7.10;3.85;;;;;;;22.02;60.58;98516.78;5033134;28;20064;-65
2021/06/27 00:16:03;;;;;;;6.35;3.53;;;;;;;22.06;60.32;98523.25;5002436;28;20032;-65
2021/06/27 00:18:29;;;;;;;6.07;4.65;;;;;;;21.79;60.49;98484.88;5014708;28;20026;-64
2021/06/27 00:20:59;;;;;;;7.03;4.07;;;;;;;21.95;60.58;98526.66;5035857;28;20026;-64
2021/06/27 00:23:26;;;;;;;8.52;3.97;;;;;;;21.97;60.43;98521.94;5018484;28;20041;-64
2021/06/27 00:25:52;;;;;;;7.15;4.03;;;;;;;21.85;60.81;98515.78;5016652;28;20030;-65
2021/06/27 00:28:18;;;;;;;6.57;4.75;;;;;;;21.65;60.60;98485.03;5009873;28;20030;-64
2021/06/27 00:30:45;;;;;;;8.90;4.95;;;;;;;21.85;61.07;98527.16;5000218;28;20033;-63
2021/06/27 00:33:11;;;;;;;7.80;4.07;;;;;;;21.81;61.43;98531.28;5018020;28;20427;-65
2021/06/27 00:35:38;;;;;;;6.75;4.35;;;;;;;21.81;61.56;98515.41;5021393;28;20577;-64
2021/06/27 00:38:04;;;;;;;6.07;3.88;;;;;;;21.83;61.38;98531.03;5019732;28;20041;-64
2021/06/27 00:40:30;;;;;;;6.15;3.67;;;;;;;21.71;61.53;98523.03;5017946;28;20067;-64
2021/06/27 00:42:56;;;;;;;8.18;3.63;;;;;;;21.73;61.91;98530.75;5034515;28;20036;-64
2021/06/27 00:45:23;;;;;;;8.27;4.88;;;;;;;21.64;62.02;98530.22;5002693;28;20033;-61
2021/06/27 00:47:49;;;;;;;6.20;3.78;;;;;;;21.71;61.88;98535.47;5032150;28;20017;-63
2021/06/27 00:50:18;;;;;;;6.00;4.45;;;;;;;21.67;61.69;98538.53;5016568;28;20029;-63
2021/06/27 00:52:43;;;;;;;5.85;4.53;;;;;;;21.48;61.79;98503.31;5014229;28;20021;-62
2021/06/27 00:55:09;;;;;;;9.35;4.93;;;;;;;21.58;62.41;98544.34;5015658;28;20041;-63
2021/06/27 00:57:36;;;;;;;8.35;5.50;;;;;;;21.53;62.28;98531.75;5026927;28;20145;-62
2021/06/27 01:00:08;;;;;;;5.45;4.75;;;;;;;21.62;61.52;98525.16;5026593;28;20033;-62
2021/06/27 01:02:33;;;;;;;8.65;5.20;;;;;;;21.49;62.40;98506.75;5000912;28;20028;-63
2021/06/27 01:04:59;;;;;;;8.00;3.92;;;;;;;21.47;62.53;98500.88;5017667;28;20044;-62
2021/06/27 01:07:24;;;;;;;7.22;3.70;;;;;;;21.47;62.67;98501.69;5017711;28;20027;-62
2021/06/27 01:09:50;;;;;;;6.43;3.90;;;;;;;21.48;63.04;98502.50;5000554;28;20072;-62
2021/06/27 01:12:15;;;;;;;6.68;3.95;;;;;;;21.24;62.64;98473.16;5020430;28;20404;-62
2021/06/27 01:14:41;;;;;;;7.85;5.28;;;;;;;21.19;62.83;98469.56;5033442;28;20033;-64
2021/06/27 01:17:06;;;;;;;6.43;3.58;;;;;;;21.35;62.94;98511.31;5017848;28;20072;-63
2021/06/27 01:19:33;;;;;;;6.80;3.70;;;;;;;21.35;63.22;98502.59;5016513;28;20029;-63
2021/06/27 01:21:59;;;;;;;7.90;3.80;;;;;;;21.31;63.41;98507.50;5014727;28;20034;-63
2021/06/27 01:24:25;;;;;;;8.02;6.38;;;;;;;21.13;63.13;98485.25;5018486;28;20030;-63
2021/06/27 01:26:50;;;;;;;7.55;3.97;;;;;;;21.30;63.04;98516.44;5034589;28;20025;-63
2021/06/27 01:29:16;;;;;;;7.30;5.25;;;;;;;21.26;62.96;98521.34;5014824;28;20064;-62
2021/06/27 01:31:42;;;;;;;6.03;3.55;;;;;;;21.25;63.07;98517.09;5015131;28;20057;-63
2021/06/27 01:34:07;;;;;;;8.77;5.35;;;;;;;21.24;62.92;98515.47;5011897;28;20120;-63
2021/06/27 01:36:33;;;;;;;7.80;6.60;;;;;;;21.24;62.49;98506.75;5017485;28;20568;-63
2021/06/27 01:38:58;;;;;;;7.28;4.78;;;;;;;21.20;62.84;98508.22;5010473;28;20472;-63
2021/06/27 01:41:24;;;;;;;6.65;4.68;;;;;;;21.22;63.30;98516.72;5016532;28;20033;-63
2021/06/27 01:43:49;;;;;;;6.93;4.15;;;;;;;21.01;63.07;98473.78;5019061;28;20654;-63
2021/06/27 01:46:15;;;;;;;7.38;5.18;;;;;;;21.26;62.56;98510.78;5031458;28;20463;-62
2021/06/27 01:48:40;;;;;;;7.20;3.30;;;;;;;21.15;62.74;98511.47;5030162;28;20045;-63
2021/06/27 01:51:06;;;;;;;7.35;4.43;;;;;;;21.10;62.49;98504.22;5017939;28;20029;-63
2021/06/27 01:53:34;;;;;;;6.93;5.13;;;;;;;21.05;62.33;98496.13;5015896;28;20048;-63
2021/06/27 01:56:07;;;;;;;7.45;4.03;;;;;;;20.96;62.35;98486.03;5017757;28;20051;-62
2021/06/27 01:58:44;;;;;;;8.13;4.05;;;;;;;21.04;62.18;98499.78;5009792;28;20324;-62
2021/06/27 02:01:30;;;;;;;6.07;3.70;;;;;;;21.06;62.48;98507.50;5016214;28;20025;-63
2021/06/27 02:03:55;;;;;;;6.80;4.13;;;;;;;20.87;62.15;98472.28;5010549;28;20037;-63
2021/06/27 02:06:23;;;;;;;9.85;5.07;;;;;;;21.11;62.30;98518.22;5015617;28;20425;-64
2021/06/27 02:08:49;;;;;;;9.93;4.10;;;;;;;21.04;62.70;98510.34;5021793;28;20658;-63
2021/06/27 02:11:16;;;;;;;6.85;4.65;;;;;;;21.02;62.90;98511.59;5030621;28;20034;-63
2021/06/27 02:13:42;;;;;;;7.93;4.32;;;;;;;21.00;62.65;98513.66;5021203;28;20086;-63
2021/06/27 02:16:08;;;;;;;5.70;3.58;;;;;;;21.02;62.77;98514.25;5032728;28;20141;-63
2021/06/27 02:18:38;;;;;;;6.78;4.57;;;;;;;21.00;62.73;98518.94;5031685;28;20116;-63
2021/06/27 02:21:14;;;;;;;7.25;5.05;;;;;;;21.04;62.44;98520.91;5024597;28;20114;-63
2021/06/27 02:23:42;;;;;;;6.85;4.13;;;;;;;20.93;62.34;98503.91;5004118;28;20041;-63
2021/06/27 02:26:08;;;;;;;6.97;4.68;;;;;;;20.90;62.64;98499.06;5022475;28;20029;-63
2021/06/27 02:28:33;;;;;;;7.40;5.05;;;;;;;20.95;63.25;98501.06;5038328;28;20083;-63
2021/06/27 02:31:03;;;;;;;6.50;4.55;;;;;;;20.89;63.62;98504.56;5018006;28;20026;-63
2021/06/27 02:33:29;;;;;;;6.00;3.70;;;;;;;20.84;64.04;98515.75;5020526;28;20141;-63
2021/06/27 02:35:55;;;;;;;7.07;4.43;;;;;;;20.87;63.89;98518.00;5022006;28;20742;-63
2021/06/27 02:38:21;;;;;;;6.63;3.85;;;;;;;20.91;63.65;98505.97;5029296;28;20033;-63
2021/06/27 02:40:47;;;;;;;7.32;4.57;;;;;;;20.68;64.04;98466.91;5023037;28;20036;-63
2021/06/27 02:43:14;;;;;;;7.28;4.47;;;;;;;20.83;64.08;98493.03;5018538;28;20144;-64
2021/06/27 02:45:40;;;;;;;6.45;4.45;;;;;;;20.73;64.71;98490.84;5018265;28;20301;-63
2021/06/27 02:48:06;;;;;;;8.35;4.78;;;;;;;20.81;64.37;98494.25;5014643;28;20030;-63
2021/06/27 02:50:32;;;;;;;5.53;4.10;;;;;;;20.70;64.39;98485.19;5023134;28;20116;-63
2021/06/27 02:52:57;;;;;;;8.00;4.93;;;;;;;20.79;64.23;98502.41;5013135;28;20045;-63
2021/06/27 02:55:23;;;;;;;7.22;4.78;;;;;;;20.81;64.14;98502.16;5035226;28;20072;-63
2021/06/27 02:57:49;;;;;;;7.78;5.05;;;;;;;20.84;64.12;98496.47;5036149;28;20526;-64
2021/06/27 03:00:16;;;;;;;7.13;4.90;;;;;;;20.82;64.33;98499.31;5037913;28;20668;-64
2021/06/27 03:02:42;;;;;;;6.95;4.78;;;;;;;20.80;64.37;98505.84;5030956;28;20391;-64
2021/06/27 03:05:09;;;;;;;7.63;6.03;;;;;;;20.69;64.48;98502.06;5003767;28;20038;-63
2021/06/27 03:07:34;;;;;;;6.20;4.40;;;;;;;20.62;64.74;98501.28;5014763;28;20029;-63
2021/06/27 03:10:00;;;;;;;6.85;3.47;;;;;;;20.55;64.82;98499.47;5036693;28;20079;-63
2021/06/27 03:12:25;;;;;;;7.60;4.10;;;;;;;20.43;64.69;98474.75;5020436;28;20091;-63
2021/06/27 03:14:51;;;;;;;5.50;4.57;;;;;;;20.52;65.31;98491.16;5032464;28;20648;-64
2021/06/27 03:17:16;;;;;;;6.95;4.07;;;;;;;20.57;65.17;98496.59;5021953;28;20516;-63
2021/06/27 03:19:41;;;;;;;7.88;4.18;;;;;;;20.61;65.07;98503.13;5036377;28;20044;-63
2021/06/27 03:22:07;;;;;;;6.43;4.60;;;;;;;20.51;65.39;98492.97;5034120;28;20033;-63
2021/06/27 03:24:32;;;;;;;6.63;4.32;;;;;;;20.59;65.11;98488.47;5035143;28;20349;-63
2021/06/27 03:26:58;;;;;;;6.18;4.18;;;;;;;20.53;64.32;98480.38;5021547;28;20341;-64
2021/06/27 03:29:23;;;;;;;5.57;4.88;;;;;;;20.31;64.12;98427.06;5032975;28;20033;-63
2021/06/27 03:31:48;;;;;;;7.55;4.35;;;;;;;20.52;64.43;98476.13;5020059;28;20132;-63
2021/06/27 03:34:14;;;;;;;8.00;4.90;;;;;;;20.51;64.92;98484.25;5014392;28;20033;-64
2021/06/27 03:36:39;;;;;;;8.15;5.05;;;;;;;20.46;65.21;98487.53;5034966;28;20040;-64
2021/06/27 03:39:07;;;;;;;6.30;3.72;;;;;;;20.50;64.88;98488.72;5013728;28;20028;-63
2021/06/27 03:41:54;;;;;;;5.97;3.42;;;;;;;20.43;64.43;98480.03;5013770;28;20121;-63
2021/06/27 03:44:20;;;;;;;6.68;4.22;;;;;;;20.51;64.72;98485.06;5014379;28;20042;-63
2021/06/27 03:46:46;;;;;;;6.97;4.63;;;;;;;20.29;64.83;98460.00;5020680;28;20025;-63
2021/06/27 03:49:11;;;;;;;10.60;4.88;;;;;;;20.27;64.73;98457.56;5005627;28;20087;-63
2021/06/27 03:51:37;;;;;;;8.15;6.97;;;;;;;20.50;64.82;98498.50;5020056;28;20064;-63
2021/06/27 03:54:02;;;;;;;9.23;5.45;;;;;;;20.28;64.51;98468.91;5030053;28;20053;-64
2021/06/27 03:56:27;;;;;;;6.28;4.68;;;;;;;20.40;64.30;98484.94;5017798;28;20075;-63
2021/06/27 03:58:54;;;;;;;7.55;4.57;;;;;;;20.38;64.68;98481.69;5031352;28;20076;-63
2021/06/27 04:01:20;;;;;;;6.32;5.18;;;;;;;20.41;64.63;98483.88;5022105;28;20021;-63
2021/06/27 04:03:45;;;;;;;6.68;3.83;;;;;;;20.42;64.28;98464.41;5014717;28;20075;-63
2021/06/27 04:06:10;;;;;;;6.45;4.55;;;;;;;20.41;64.45;98465.41;5019649;28;20112;-64
2021/06/27 04:08:36;;;;;;;7.25;5.00;;;;;;;20.40;64.50;98450.59;5010800;28;20033;-63
2021/06/27 04:11:01;;;;;;;6.75;4.63;;;;;;;20.35;63.94;98445.94;5035501;28;20091;-64
2021/06/27 04:13:32;;;;;;;7.30;4.47;;;;;;;20.31;64.06;98450.81;5015634;28;20068;-64
2021/06/27 04:15:59;;;;;;;6.28;4.68;;;;;;;20.39;63.90;98463.00;5035413;28;20030;-63
2021/06/27 04:18:24;;;;;;;7.53;5.65;;;;;;;20.35;63.81;98486.38;5026226;28;20041;-64
2021/06/27 04:20:51;;;;;;;7.05;4.95;;;;;;;20.34;63.93;98483.94;5030301;28;20039;-63
2021/06/27 04:23:17;;;;;;;5.78;3.90;;;;;;;20.38;63.96;98503.59;5034982;28;20072;-63
2021/06/27 04:25:43;;;;;;;6.00;5.18;;;;;;;20.13;64.59;98464.75;5017691;28;20517;-63
2021/06/27 04:28:09;;;;;;;8.55;5.32;;;;;;;20.14;64.51;98469.00;5009278;28;20026;-63
2021/06/27 04:30:35;;;;;;;6.10;4.13;;;;;;;20.40;64.53;98512.13;5018907;28;20107;-63
2021/06/27 04:33:02;;;;;;;8.50;5.65;;;;;;;20.37;65.00;98507.28;5030398;28;20083;-63
2021/06/27 04:35:27;;;;;;;7.30;6.60;;;;;;;20.31;65.10;98511.56;5021108;28;20060;-63
2021/06/27 04:37:53;;;;;;;6.35;5.45;;;;;;;20.39;65.04;98526.38;5018429;28;20021;-63
2021/06/27 04:40:18;;;;;;;6.95;5.70;;;;;;;20.35;65.08;98518.06;5018009;28;20030;-63
2021/06/27 04:42:44;;;;;;;6.25;4.60;;;;;;;20.39;65.11;98528.19;5017383;28;20103;-63
2021/06/27 04:45:10;;;;;;;14.07;12.68;;;;;;;20.45;64.74;98520.25;5036202;28;20098;-63
2021/06/27 04:47:35;;;;;;;12.57;11.27;;;;;;;20.31;64.16;98489.63;5009830;28;20411;-63
2021/06/27 04:50:04;;;;;;;10.30;9.23;;;;;;;20.42;64.39;98518.00;5036111;28;20090;-63
2021/06/27 04:52:29;;;;;;;10.07;6.28;;;;;;;20.53;63.75;98525.28;5018224;28;20033;-63
2021/06/27 04:54:54;;;;;;;6.93;4.70;;;;;;;20.42;63.18;98491.59;5030248;28;20123;-63
2021/06/27 04:57:20;;;;;;;8.77;4.85;;;;;;;20.52;63.01;98504.38;5017157;28;20038;-63
2021/06/27 04:59:45;;;;;;;6.78;4.68;;;;;;;20.55;62.30;98506.56;5013421;28;20045;-62
2021/06/27 05:02:11;;;;;;;5.57;4.43;;;;;;;20.39;61.94;98475.38;5014368;28;20048;-63
2021/06/27 05:04:36;;;;;;;6.38;4.63;;;;;;;20.73;61.72;98506.69;5030262;28;20079;-62
2021/06/27 05:07:02;;;;;;;10.40;9.32;;;;;;;20.72;62.67;98506.94;5013013;28;20025;-63
2021/06/27 05:09:27;;;;;;;8.82;8.02;;;;;;;20.63;62.20;98493.16;5018891;28;20049;-63
2021/06/27 05:11:52;;;;;;;15.82;14.52;;;;;;;20.73;61.77;98501.41;5021589;28;20017;-63
2021/06/27 05:14:18;;;;;;;10.25;8.10;;;;;;;20.62;61.22;98485.44;5016636;28;20037;-63
2021/06/27 05:16:43;;;;;;;6.53;4.75;;;;;;;20.83;61.10;98516.00;5015692;28;20042;-63
2021/06/27 05:19:09;;;;;;;5.88;4.45;;;;;;;20.55;61.03;98480.16;5014436;28;20041;-63
2021/06/27 05:21:34;;;;;;;5.75;4.15;;;;;;;20.78;61.25;98521.13;5019368;28;20108;-63
2021/06/27 05:23:59;;;;;;;5.45;3.97;;;;;;;20.65;61.58;98512.25;5037904;28;20064;-63
2021/06/27 05:26:25;;;;;;;50.50;24.80;;;;;;;20.51;62.19;98490.34;5016858;28;20024;-63
2021/06/27 05:28:51;;;;;;;49.55;25.98;;;;;;;20.66;62.09;98513.03;5013205;28;20037;-63
2021/06/27 05:31:16;;;;;;;16.02;8.70;;;;;;;20.59;62.40;98512.22;5036069;28;20022;-63
2021/06/27 05:33:41;;;;;;;14.93;13.55;;;;;;;20.55;62.51;98517.97;5018553;28;20617;-63
2021/06/27 05:36:07;;;;;;;7.47;4.13;;;;;;;20.56;62.63;98537.25;5018048;28;20029;-63
2021/06/27 05:38:33;;;;;;;6.22;4.55;;;;;;;20.67;62.11;98544.53;5018710;28;20908;-63
2021/06/27 05:40:58;;;;;;;7.22;5.75;;;;;;;20.68;62.55;98547.97;5023405;28;20228;-63
2021/06/27 05:43:24;;;;;;;6.50;4.22;;;;;;;20.62;63.18;98556.75;5018938;28;20056;-63
2021/06/27 05:45:49;;;;;;;5.63;3.78;;;;;;;20.65;62.88;98557.16;5015975;28;20387;-63
2021/06/27 05:48:14;;;;;;;6.55;4.72;;;;;;;20.64;62.89;98563.44;5020707;28;20095;-63
2021/06/27 05:50:40;;;;;;;6.70;5.35;;;;;;;20.62;62.82;98557.56;5016072;28;20393;-64
2021/06/27 05:53:05;;;;;;;7.80;4.25;;;;;;;20.59;63.03;98562.41;5020279;28;20026;-63
2021/06/27 05:55:31;;;;;;;6.43;5.22;;;;;;;20.39;63.35;98531.66;5017695;28;20084;-63
2021/06/27 05:57:56;;;;;;;6.97;4.90;;;;;;;20.59;63.06;98565.06;5019771;28;20583;-63
2021/06/27 06:00:22;;;;;;;7.05;5.47;;;;;;;20.63;63.31;98561.03;5024526;28;20360;-64
2021/06/27 06:02:47;;;;;;;7.03;3.80;;;;;;;20.62;62.70;98554.13;5021412;28;20037;-64
2021/06/27 06:05:13;;;;;;;6.03;4.20;;;;;;;20.69;62.29;98557.53;5019498;28;20051;-64
2021/06/27 06:07:38;;;;;;;7.88;4.60;;;;;;;20.54;61.15;98526.09;5007585;28;20432;-64
2021/06/27 06:10:05;;;;;;;7.80;4.32;;;;;;;20.76;61.21;98549.59;5019069;28;20395;-63
2021/06/27 06:12:31;;;;;;;5.57;3.50;;;;;;;20.82;59.77;98546.88;5017259;28;20048;-63
2021/06/27 06:14:56;;;;;;;6.70;4.38;;;;;;;20.71;59.81;98526.44;5019747;28;20038;-64
2021/06/27 06:17:21;;;;;;;7.32;4.65;;;;;;;20.81;60.01;98533.88;5022979;28;20536;-63
2021/06/27 06:19:51;;;;;;;6.68;4.45;;;;;;;20.80;59.99;98530.44;5020919;28;20037;-63
2021/06/27 06:22:17;;;;;;;5.57;4.15;;;;;;;20.90;60.07;98536.06;5022798;28;20025;-63
2021/06/27 06:24:43;;;;;;;6.38;3.80;;;;;;;20.95;60.53;98539.91;5019127;28;21555;-63
2021/06/27 06:27:08;;;;;;;7.05;3.88;;;;;;;20.97;60.72;98540.50;5020391;28;20041;-63
2021/06/27 06:29:33;;;;;;;7.55;4.55;;;;;;;20.69;60.47;98487.00;5021064;28;20038;-63
2021/06/27 06:31:59;;;;;;;11.63;7.88;;;;;;;20.98;60.32;98532.34;5038326;28;20030;-63
2021/06/27 06:34:24;;;;;;;11.27;7.15;;;;;;;20.97;59.83;98535.22;5019169;28;20104;-63
2021/06/27 06:36:50;;;;;;;7.03;4.13;;;;;;;20.93;59.23;98534.81;5029781;28;20041;-63
2021/06/27 06:39:15;;;;;;;7.55;5.20;;;;;;;20.78;59.63;98502.63;5029529;28;20144;-64
2021/06/27 06:41:41;;;;;;;10.40;6.28;;;;;;;21.00;58.83;98543.53;5019955;28;20534;-63
2021/06/27 06:44:06;;;;;;;14.95;11.27;;;;;;;20.97;59.10;98540.50;5017223;28;20032;-63
2021/06/27 06:46:31;;;;;;;7.80;5.40;;;;;;;21.09;59.76;98542.22;5031401;28;20133;-63
2021/06/27 06:48:57;;;;;;;12.60;9.30;;;;;;;21.09;59.38;98549.38;5022700;28;20619;-63
2021/06/27 06:51:25;;;;;;;7.65;4.03;;;;;;;21.20;59.22;98563.72;5022429;28;20033;-63
2021/06/27 06:53:51;;;;;;;8.85;4.93;;;;;;;21.13;59.73;98561.94;5022175;28;20068;-63
2021/06/27 06:56:17;;;;;;;10.38;5.55;;;;;;;21.22;59.74;98559.84;5021172;28;20078;-63
2021/06/27 06:58:43;;;;;;;5.90;4.40;;;;;;;21.33;59.83;98560.19;5018472;28;20027;-63
2021/06/27 07:01:08;;;;;;;8.07;4.65;;;;;;;21.42;59.98;98562.31;5006903;28;20030;-63
2021/06/27 07:03:34;;;;;;;6.45;4.15;;;;;;;21.04;60.16;98514.81;5021000;28;20064;-63
2021/06/27 07:05:59;;;;;;;6.40;4.30;;;;;;;21.38;60.10;98565.63;5021651;28;20026;-63
2021/06/27 07:08:26;;;;;;;6.28;4.55;;;;;;;21.26;60.89;98560.22;5014051;28;20029;-63
2021/06/27 07:10:52;;;;;;;7.00;4.78;;;;;;;21.27;60.69;98565.28;5038720;28;20044;-63
2021/06/27 07:13:18;;;;;;;5.97;4.18;;;;;;;21.26;60.06;98576.88;5018805;28;20067;-63
2021/06/27 07:15:43;;;;;;;5.78;4.28;;;;;;;21.30;60.05;98570.16;5025555;28;20522;-63
2021/06/27 07:18:09;;;;;;;5.90;4.55;;;;;;;21.19;60.17;98549.72;5017132;28;20368;-63
2021/06/27 07:20:34;;;;;;;6.10;4.70;;;;;;;21.38;60.36;98578.84;5036170;28;20167;-63
2021/06/27 07:23:00;;;;;;;6.00;4.55;;;;;;;21.47;59.75;98578.41;5021808;28;20213;-63
2021/06/27 07:25:25;;;;;;;6.70;4.40;;;;;;;21.42;60.24;98580.03;5019351;28;20088;-63
2021/06/27 07:27:50;;;;;;;5.82;3.53;;;;;;;21.47;59.66;98578.41;5020901;28;20166;-64
2021/06/27 07:30:16;;;;;;;7.30;3.95;;;;;;;21.48;59.86;98577.38;5015616;28;20034;-63
2021/06/27 07:32:41;;;;;;;7.57;3.95;;;;;;;21.56;59.80;98571.00;5017611;28;20032;-63
2021/06/27 07:35:07;;;;;;;7.60;4.28;;;;;;;21.59;59.62;98569.75;5005200;28;20105;-64
2021/06/27 07:37:33;;;;;;;8.02;3.97;;;;;;;21.37;59.44;98537.56;5009009;28;20470;-63
2021/06/27 07:39:58;;;;;;;7.35;4.05;;;;;;;21.60;59.58;98568.72;5027884;28;20117;-63
2021/06/27 07:42:23;;;;;;;8.23;4.25;;;;;;;21.73;58.89;98568.59;5016060;28;20124;-64
2021/06/27 07:44:49;;;;;;;6.20;3.42;;;;;;;22.52;56.20;98573.28;5030338;28;20038;-63
2021/06/27 07:47:14;;;;;;;7.10;4.32;;;;;;;23.04;54.06;98560.38;5033814;28;20844;-63
2021/06/27 07:49:40;;;;;;;6.18;4.43;;;;;;;23.41;53.94;98555.69;5011434;28;20025;-63
2021/06/27 07:52:07;;;;;;;5.50;3.97;;;;;;;23.56;54.54;98544.63;5023129;28;20025;-63
2021/06/27 07:54:33;;;;;;;6.95;4.15;;;;;;;23.81;54.03;98554.25;5036357;28;20022;-63
2021/06/27 07:56:58;;;;;;;4.82;3.28;;;;;;;24.19;53.05;98542.28;5024085;28;20029;-64
2021/06/27 07:59:24;;;;;;;6.47;3.55;;;;;;;24.29;52.17;98539.03;5015537;28;20111;-63
2021/06/27 08:01:49;;;;;;;6.47;3.40;;;;;;;24.58;51.89;98545.19;5016927;28;20030;-63
2021/06/27 08:04:15;;;;;;;4.78;3.00;;;;;;;24.86;49.87;98532.94;5013875;28;20456;-64
2021/06/27 08:06:41;;;;;;;5.90;4.10;;;;;;;25.39;48.11;98537.03;5018639;28;20120;-63
2021/06/27 08:09:07;;;;;;;8.73;3.10;;;;;;;25.18;48.35;98538.53;5027561;28;20547;-63
2021/06/27 08:11:32;;;;;;;7.68;3.13;;;;;;;25.37;47.54;98525.00;5012143;28;20037;-63
2021/06/27 08:13:58;;;;;;;5.80;2.70;;;;;;;25.63;47.31;98521.66;5015474;28;20044;-63
2021/06/27 08:16:23;;;;;;;6.32;3.42;;;;;;;25.47;47.37;98525.97;5009704;28;20164;-63
2021/06/27 08:18:48;;;;;;;6.63;3.33;;;;;;;25.73;47.67;98523.66;5015465;28;20067;-63
2021/06/27 08:21:14;;;;;;;5.55;3.58;;;;;;;26.04;47.21;98532.09;5011698;28;20026;-63
2021/06/27 08:23:40;;;;;;;6.80;3.08;;;;;;;25.92;47.33;98521.53;5016787;28;20041;-64
2021/06/27 08:26:06;;;;;;;5.38;3.92;;;;;;;26.02;46.77;98526.19;5030722;28;20038;-64
2021/06/27 08:28:32;;;;;;;5.55;2.90;;;;;;;26.20;47.23;98525.09;5016165;28;20029;-64
2021/06/27 08:30:57;;;;;;;6.07;3.55;;;;;;;26.00;47.94;98501.66;5011370;28;20053;-64
2021/06/27 08:33:22;;;;;;;7.15;3.63;;;;;;;25.57;45.89;98503.19;5031792;28;20037;-63
2021/06/27 08:35:48;;;;;;;8.20;3.20;;;;;;;25.82;47.56;98502.75;5020424;28;20407;-64
2021/06/27 08:38:13;;;;;;;5.40;2.92;;;;;;;26.15;48.04;98533.81;5016179;28;20132;-64
2021/06/27 08:40:39;;;;;;;5.97;3.38;;;;;;;26.23;47.51;98528.06;5038753;28;20476;-63
2021/06/27 08:43:09;;;;;;;5.18;2.45;;;;;;;26.04;47.19;98526.75;5036366;28;20029;-63
2021/06/27 08:45:48;;;;;;;6.68;3.42;;;;;;;26.17;48.83;98525.56;5024737;28;20065;-63
2021/06/27 08:48:15;;;;;;;5.00;3.92;;;;;;;26.32;47.58;98538.28;5017236;28;20029;-63
2021/06/27 08:50:41;;;;;;;5.55;3.15;;;;;;;26.65;46.92;98538.13;5036280;28;20112;-63
2021/06/27 08:53:08;;;;;;;5.88;4.25;;;;;;;27.20;46.44;98533.56;5022726;28;20108;-63
2021/06/27 08:55:33;;;;;;;5.30;3.00;;;;;;;26.81;45.20;98540.94;5028794;28;20038;-63
2021/06/27 08:57:59;;;;;;;7.88;3.42;;;;;;;26.74;47.24;98543.00;5030959;28;20032;-63
2021/06/27 09:00:24;;;;;;;7.75;3.20;;;;;;;26.37;47.99;98536.47;5015199;28;20090;-64
2021/06/27 09:02:49;;;;;;;5.13;3.03;;;;;;;26.71;45.94;98532.88;5036758;28;20040;-64
2021/06/27 09:05:15;;;;;;;6.63;2.33;;;;;;;27.12;44.02;98519.88;5034251;28;20496;-63
2021/06/27 09:07:40;;;;;;;5.97;2.67;;;;;;;27.45;43.78;98529.47;5020170;28;20679;-63
2021/06/27 09:10:23;;;;;;;6.72;3.00;;;;;;;27.73;43.14;98528.31;5034359;28;20041;-65
2021/06/27 09:12:54;;;;;;;5.13;2.70;;;;;;;27.94;41.22;98523.13;5031429;28;20060;-65
2021/06/27 09:15:45;;;;;;;6.05;2.90;;;;;;;27.68;42.23;98525.63;5021821;28;20148;-63
2021/06/27 09:18:13;;;;;;;7.10;2.97;;;;;;;27.15;41.92;98501.50;5002539;28;20566;-65
2021/06/27 09:20:40;;;;;;;4.70;2.78;;;;;;;27.73;40.17;98512.31;5021704;28;20160;-66
2021/06/27 09:23:06;;;;;;;6.10;3.20;;;;;;;28.11;40.90;98505.03;5013847;28;20570;-64
2021/06/27 09:25:33;;;;;;;5.15;2.85;;;;;;;29.08;39.67;98517.78;5028335;28;20022;-67
2021/06/27 09:28:03;;;;;;;6.00;3.00;;;;;;;29.67;37.92;98510.22;5021250;28;20026;-64
2021/06/27 09:30:31;;;;;;;6.25;2.75;;;;;;;29.76;37.54;98505.94;5020000;28;20076;-64
2021/06/27 09:33:05;;;;;;;6.43;3.53;;;;;;;29.63;37.29;98512.63;5018811;28;20123;-64
2021/06/27 09:35:46;;;;;;;5.70;2.65;;;;;;;29.32;39.05;98509.22;5022458;28;20601;-64
2021/06/27 09:38:22;;;;;;;7.82;2.42;;;;;;;29.48;35.72;98505.44;5018825;28;20038;-66
2021/06/27 09:40:49;;;;;;;6.15;2.42;;;;;;;29.26;37.49;98511.09;5023685;28;20045;-63
2021/06/27 09:43:14;;;;;;;7.88;3.00;;;;;;;29.85;37.31;98500.81;5018217;28;20026;-60
2021/06/27 09:45:52;;;;;;;6.18;2.75;;;;;;;29.74;37.66;98504.59;5022725;28;20036;-61
2021/06/27 09:48:17;;;;;;;8.98;2.80;;;;;;;29.48;38.09;98493.91;5004268;28;20377;-63
2021/06/27 09:50:43;;;;;;;6.35;2.97;;;;;;;29.44;38.91;98493.66;5021832;28;20048;-61
2021/06/27 09:53:38;;;;;;;4.63;2.30;;;;;;;28.74;42.53;98486.19;5021772;28;20117;-61
2021/06/27 09:56:06;;;;;;;5.68;2.70;;;;;;;28.91;41.60;98485.13;5022338;28;20037;-62
2021/06/27 09:58:32;;;;;;;4.70;2.67;;;;;;;29.05;40.96;98458.63;5021151;28;20163;-63
2021/06/27 10:00:58;;;;;;;5.43;2.20;;;;;;;29.39;40.51;98480.28;5021793;28;20029;-61
2021/06/27 10:03:27;;;;;;;6.10;3.92;;;;;;;29.10;40.95;98488.06;5019921;28;20031;-62
2021/06/27 10:06:08;;;;;;;7.97;3.13;;;;;;;28.47;40.38;98450.81;5005487;28;20091;-62
2021/06/27 10:08:34;;;;;;;9.45;2.92;;;;;;;28.02;41.00;98477.19;5025470;28;20029;-63
2021/06/27 10:11:07;;;;;;;9.82;3.72;;;;;;;27.63;42.10;98482.06;5038152;28;20030;-61
2021/06/27 10:13:32;;;;;;;6.53;3.45;;;;;;;27.36;43.33;98470.44;5002608;28;20022;-62
2021/06/27 10:15:58;;;;;;;7.30;2.70;;;;;;;27.25;43.46;98476.72;5024885;28;20056;-64
2021/06/27 10:18:24;;;;;;;6.05;2.75;;;;;;;27.52;40.71;98474.00;5015932;28;20420;-61
2021/06/27 10:20:49;;;;;;;6.60;2.58;;;;;;;27.69;38.87;98475.69;5038519;28;20041;-62
2021/06/27 10:23:14;;;;;;;7.30;3.22;;;;;;;27.73;37.88;98456.22;5021368;28;20403;-60
2021/06/27 10:25:40;;;;;;;6.13;2.85;;;;;;;27.80;41.79;98456.78;5038218;28;20033;-62
2021/06/27 10:28:06;;;;;;;6.70;2.80;;;;;;;27.80;39.77;98458.63;5024567;28;20029;-61
2021/06/27 10:30:34;;;;;;;4.82;2.38;;;;;;;28.02;38.79;98471.03;5021402;28;20128;-61
2021/06/27 10:32:59;;;;;;;4.95;2.42;;;;;;;27.92;37.58;98431.72;5021176;28;20036;-60
2021/06/27 10:35:25;;;;;;;5.63;2.13;;;;;;;28.17;36.97;98423.00;5017710;28;20025;-61
2021/06/27 10:37:52;;;;;;;8.45;3.28;;;;;;;28.49;36.53;98454.84;5023414;28;20033;-62
2021/06/27 10:40:19;;;;;;;6.28;2.70;;;;;;;28.51;37.04;98462.59;5021413;28;20037;-63
2021/06/27 10:42:47;;;;;;;7.75;2.67;;;;;;;28.27;37.42;98448.94;5028912;28;20029;-62
2021/06/27 10:45:13;;;;;;;8.95;2.50;;;;;;;28.45;36.30;98458.31;5023119;28;20407;-61
2021/06/27 10:47:38;;;;;;;5.55;2.72;;;;;;;28.43;37.25;98455.91;5014381;28;20131;-60
2021/06/27 10:50:08;;;;;;;5.20;2.22;;;;;;;28.37;37.97;98454.31;5023815;28;20157;-64
2021/06/27 10:53:02;;;;;;;6.97;3.85;;;;;;;28.67;36.40;98452.75;5022372;28;20158;-63
2021/06/27 10:55:48;;;;;;;6.20;2.58;;;;;;;28.58;37.04;98451.69;5018872;28;20057;-62
2021/06/27 10:58:15;;;;;;;6.32;2.35;;;;;;;28.64;36.41;98451.44;5002951;28;20037;-62
2021/06/27 11:00:53;;;;;;;4.28;2.30;;;;;;;28.65;37.35;98449.53;5014695;28;20496;-61
2021/06/27 11:03:42;;;;;;;7.50;2.30;;;;;;;28.44;37.29;98443.34;5019439;28;20045;-62
2021/06/27 11:06:33;;;;;;;7.55;2.25;;;;;;;28.65;37.23;98446.88;5022599;28;20037;-62
2021/06/27 11:09:08;;;;;;;5.20;2.40;;;;;;;28.80;36.96;98446.84;5032042;28;20041;-61
2021/06/27 11:11:52;;;;;;;4.55;2.55;;;;;;;28.69;37.65;98442.59;5033072;28;20041;-63
2021/06/27 11:14:18;;;;;;;6.90;2.38;;;;;;;28.81;36.88;98436.97;5015327;28;20032;-64
2021/06/27 11:17:03;;;;;;;5.20;2.78;;;;;;;28.61;37.45;98443.13;5017971;28;20480;-63
2021/06/27 11:19:31;;;;;;;5.90;2.20;;;;;;;28.49;37.98;98436.13;5021069;28;20399;-61
2021/06/27 11:22:17;;;;;;;6.55;2.60;;;;;;;28.60;37.68;98439.63;5017809;28;20039;-60
2021/06/27 11:24:44;;;;;;;7.90;3.08;;;;;;;28.35;36.78;98411.78;5037168;28;20021;-61
2021/06/27 11:27:35;;;;;;;6.63;2.42;;;;;;;28.49;37.93;98435.31;5007150;28;20116;-61
2021/06/27 11:30:22;;;;;;;5.55;2.53;;;;;;;28.70;38.14;98428.94;5014868;28;20025;-61
2021/06/27 11:32:48;;;;;;;6.45;3.80;;;;;;;29.01;36.79;98431.59;5002974;28;20033;-61